Time;durP1;ratioP1;P1;durP2;ratioP2;P2;SDS_P1;SDS_P2;PMS_P1;PMS_P2;Temp;Humidity;BMP_temperature;BMP_pressure;BME280_temperature;BME280_humidity;BME280_pressure;Samples;Min_cycle;Max_cycle;Signal;HPM_P1;HPM_P2
2022/01/01 00:00:06;;;;;;;13.18;6.00;;;;;;;7.19;91.82;97574.00;2072897;28;20806;-59
2022/01/01 00:01:08;;;;;;;13.65;7.40;;;;;;;7.18;91.78;97574.06;2072561;28;20213;-59
2022/01/01 00:02:09;;;;;;;10.23;5.80;;;;;;;7.11;91.99;97568.25;2072056;28;21004;-59
2022/01/01 00:03:31;;;;;;;10.18;6.50;;;;;;;6.99;92.60;97573.94;2072262;28;20209;-60
2022/01/01 00:04:33;;;;;;;8.70;5.40;;;;;;;7.01;92.44;97566.91;2072884;28;20664;-60
2022/01/01 00:05:35;;;;;;;11.10;6.07;;;;;;;6.96;92.88;97574.03;2072703;28;20202;-60
2022/01/01 00:06:36;;;;;;;12.07;7.50;;;;;;;6.99;92.77;97571.34;2072263;28;20229;-60
2022/01/01 00:07:40;;;;;;;17.23;8.85;;;;;;;7.04;92.41;97569.41;2072793;28;20657;-59
2022/01/01 00:08:42;;;;;;;14.75;9.15;;;;;;;6.92;92.78;97570.72;2072563;28;20213;-59
2022/01/01 00:09:44;;;;;;;18.15;9.45;;;;;;;7.03;92.85;97576.34;2072708;28;20201;-60
2022/01/01 00:10:45;;;;;;;20.83;9.07;;;;;;;7.01;92.95;97582.53;2072679;28;20205;-59
2022/01/01 00:11:49;;;;;;;19.83;10.30;;;;;;;6.97;93.21;97581.81;2071890;28;20221;-59
2022/01/01 00:12:51;;;;;;;18.65;9.60;;;;;;;7.03;93.35;97571.16;2072680;28;20236;-60
2022/01/01 00:13:52;;;;;;;21.63;9.85;;;;;;;7.16;93.32;97579.34;2072684;28;20197;-59
2022/01/01 00:14:54;;;;;;;22.15;10.07;;;;;;;7.20;93.13;97580.06;2071220;28;20209;-60
2022/01/01 00:15:55;;;;;;;18.60;10.18;;;;;;;7.10;93.16;97580.41;2072259;28;20210;-60
2022/01/01 00:16:57;;;;;;;18.35;10.50;;;;;;;7.12;92.92;97588.19;2071781;28;20275;-59
2022/01/01 00:17:59;;;;;;;17.33;9.48;;;;;;;7.08;92.57;97587.44;2072284;28;20197;-60
2022/01/01 00:19:00;;;;;;;18.20;9.05;;;;;;;6.87;92.86;97576.09;2072307;28;20206;-59
2022/01/01 00:20:03;;;;;;;14.07;9.05;;;;;;;6.82;93.89;97582.38;2072251;28;20216;-60
2022/01/01 00:21:06;;;;;;;20.58;11.60;;;;;;;6.93;93.77;97569.81;2067270;28;20210;-60
2022/01/01 00:22:07;;;;;;;17.55;9.80;;;;;;;6.89;93.39;97574.28;2067516;28;20228;-59
2022/01/01 00:23:09;;;;;;;17.23;10.00;;;;;;;6.83;93.70;97568.47;2072445;28;20715;-59
2022/01/01 00:24:11;;;;;;;16.33;8.68;;;;;;;6.76;93.88;97593.88;2072485;28;20204;-59
2022/01/01 00:25:13;;;;;;;17.05;8.93;;;;;;;6.71;94.21;97590.63;2072524;28;20197;-60
2022/01/01 00:26:15;;;;;;;17.38;9.30;;;;;;;6.45;94.40;97545.59;2071976;28;20202;-60
2022/01/01 00:27:16;;;;;;;13.55;8.23;;;;;;;6.65;94.37;97568.25;2072518;28;20202;-59
2022/01/01 00:28:18;;;;;;;19.63;9.80;;;;;;;6.59;94.52;97570.25;2072415;28;20198;-62
2022/01/01 00:29:20;;;;;;;18.77;9.85;;;;;;;6.67;94.47;97582.06;2072602;28;20208;-59
2022/01/01 00:30:21;;;;;;;16.75;9.20;;;;;;;6.60;94.60;97566.72;2070480;28;20197;-59
2022/01/01 00:31:23;;;;;;;24.02;13.90;;;;;;;6.78;94.41;97583.41;2072106;28;20198;-59
2022/01/01 00:32:24;;;;;;;25.10;13.98;;;;;;;6.74;94.37;97572.25;2072571;28;20521;-59
2022/01/01 00:33:29;;;;;;;24.23;12.85;;;;;;;6.76;94.21;97588.66;2072563;28;20232;-59
2022/01/01 00:34:30;;;;;;;23.45;13.13;;;;;;;6.83;94.01;97592.75;2072603;28;20229;-59
2022/01/01 00:35:32;;;;;;;26.85;13.93;;;;;;;6.80;94.36;97592.88;2072660;28;20542;-59
2022/01/01 00:36:34;;;;;;;22.08;14.00;;;;;;;6.75;94.40;97579.19;2072047;28;20221;-60
2022/01/01 00:37:35;;;;;;;30.10;15.63;;;;;;;6.82;94.80;97593.69;2072294;28;20271;-60
2022/01/01 00:38:37;;;;;;;26.92;14.98;;;;;;;6.86;94.88;97594.38;2072649;28;20201;-60
2022/01/01 00:39:38;;;;;;;28.23;15.32;;;;;;;6.78;94.80;97571.22;2072563;28;20689;-59
2022/01/01 00:40:39;;;;;;;28.92;14.82;;;;;;;6.92;94.54;97588.97;2072626;28;20528;-59
2022/01/01 00:41:42;;;;;;;29.75;16.42;;;;;;;6.92;94.98;97586.38;2072017;28;20225;-60
2022/01/01 00:42:44;;;;;;;21.33;13.43;;;;;;;6.99;94.44;97577.38;2072615;28;20186;-59
2022/01/01 00:43:45;;;;;;;31.15;15.88;;;;;;;6.98;94.29;97564.41;2072423;28;20645;-60
2022/01/01 00:44:47;;;;;;;33.85;17.02;;;;;;;7.05;94.30;97577.13;2072206;28;20197;-59
2022/01/01 00:45:48;;;;;;;34.22;16.63;;;;;;;6.83;94.43;97538.06;2071689;28;20197;-60
2022/01/01 00:46:50;;;;;;;30.42;15.43;;;;;;;7.08;94.66;97584.00;2072035;28;20228;-60
2022/01/01 00:47:51;;;;;;;32.35;17.60;;;;;;;7.00;94.47;97583.44;2071943;28;20742;-60
2022/01/01 00:48:53;;;;;;;29.55;17.20;;;;;;;6.97;94.74;97581.81;2071865;28;20673;-59
2022/01/01 00:50:00;;;;;;;30.30;16.48;;;;;;;6.99;94.88;97574.78;2072350;28;20205;-60
2022/01/01 00:51:02;;;;;;;30.92;15.65;;;;;;;7.04;94.69;97574.63;2072543;28;20194;-59
2022/01/01 00:52:03;;;;;;;33.10;18.35;;;;;;;7.09;94.97;97583.91;2071944;28;20232;-60
2022/01/01 00:53:05;;;;;;;27.88;16.48;;;;;;;7.00;94.60;97580.81;2072298;28;20202;-59
2022/01/01 00:54:07;;;;;;;30.88;17.00;;;;;;;7.03;95.33;97585.94;2071527;28;20309;-59
2022/01/01 00:55:09;;;;;;;27.00;15.13;;;;;;;6.97;94.65;97565.34;2071834;28;20205;-59
2022/01/01 00:56:10;;;;;;;32.38;15.80;;;;;;;7.17;94.58;97594.03;2072330;28;20201;-60
2022/01/01 00:57:12;;;;;;;36.55;19.23;;;;;;;7.13;94.31;97587.25;2071832;28;20698;-60
2022/01/01 00:58:13;;;;;;;31.25;17.80;;;;;;;7.21;94.01;97595.63;2072105;28;20198;-60
2022/01/01 00:59:15;;;;;;;36.45;17.13;;;;;;;7.23;94.07;97593.81;2072388;28;20205;-59
2022/01/01 01:00:16;;;;;;;35.65;16.83;;;;;;;7.18;94.83;97594.91;2070844;28;20220;-60
2022/01/01 01:01:18;;;;;;;32.13;17.55;;;;;;;7.23;94.65;97588.63;2071969;28;20202;-60
2022/01/01 01:02:20;;;;;;;30.27;16.70;;;;;;;7.29;93.98;97592.72;2072139;28;20230;-59
2022/01/01 01:03:21;;;;;;;30.08;17.58;;;;;;;7.25;94.46;97593.75;2072486;28;20194;-59
2022/01/01 01:04:23;;;;;;;32.17;18.00;;;;;;;7.27;94.40;97590.19;2072322;28;20205;-59
2022/01/01 01:05:25;;;;;;;30.38;16.33;;;;;;;7.28;94.44;97597.09;2072380;28;20229;-59
2022/01/01 01:06:27;;;;;;;33.42;16.58;;;;;;;7.28;94.30;97591.88;2071964;28;20201;-59
2022/01/01 01:07:29;;;;;;;33.05;16.73;;;;;;;7.28;94.48;97597.09;2072447;28;20715;-60
2022/01/01 01:08:30;;;;;;;25.02;13.70;;;;;;;7.32;93.57;97592.59;2072508;28;20202;-60
2022/01/01 01:09:32;;;;;;;21.23;13.75;;;;;;;7.27;93.21;97587.59;2072005;28;20210;-60
2022/01/01 01:10:35;;;;;;;26.73;13.48;;;;;;;7.06;93.91;97591.88;2073171;28;20202;-59
2022/01/01 01:11:42;;;;;;;22.35;12.43;;;;;;;6.82;94.92;97587.59;2072612;28;20222;-59
2022/01/01 01:12:47;;;;;;;23.33;11.82;;;;;;;7.02;94.71;97590.31;2072440;28;20189;-60
2022/01/01 01:13:56;;;;;;;28.75;12.32;;;;;;;7.15;93.79;97584.59;2071055;28;20205;-60
2022/01/01 01:14:58;;;;;;;21.55;11.40;;;;;;;6.97;94.70;97591.38;2071071;28;20205;-60
2022/01/01 01:16:00;;;;;;;24.20;12.90;;;;;;;6.94;95.17;97600.16;2072459;28;20549;-60
2022/01/01 01:17:02;;;;;;;21.35;13.05;;;;;;;6.97;95.25;97588.78;2071917;28;20221;-60
2022/01/01 01:18:07;;;;;;;25.70;12.77;;;;;;;7.01;95.26;97587.75;2072237;28;20197;-58
2022/01/01 01:19:08;;;;;;;22.17;13.05;;;;;;;7.01;95.72;97593.78;2069888;28;20198;-58
2022/01/01 01:20:10;;;;;;;23.13;13.65;;;;;;;6.90;95.25;97570.78;2072330;28;20198;-58
2022/01/01 01:21:12;;;;;;;27.20;13.70;;;;;;;7.06;95.83;97596.25;2071774;28;20197;-58
2022/01/01 01:22:14;;;;;;;27.67;14.13;;;;;;;7.06;95.33;97591.03;2072230;28;20222;-58
2022/01/01 01:23:15;;;;;;;20.42;13.38;;;;;;;7.02;95.21;97589.47;2072177;28;20193;-58
2022/01/01 01:24:18;;;;;;;27.02;15.38;;;;;;;7.06;95.41;97597.09;2072428;28;20644;-58
2022/01/01 01:25:22;;;;;;;26.30;13.50;;;;;;;7.02;94.64;97594.66;2072261;28;20201;-58
2022/01/01 01:26:27;;;;;;;24.58;13.40;;;;;;;6.98;94.66;97582.66;2071652;28;20621;-58
2022/01/01 01:27:30;;;;;;;31.67;14.75;;;;;;;7.02;95.28;97595.50;2072295;28;20197;-58
2022/01/01 01:28:31;;;;;;;22.67;14.43;;;;;;;7.09;95.24;97601.31;2072385;28;20208;-59
2022/01/01 01:29:37;;;;;;;28.05;13.43;;;;;;;7.26;94.69;97606.72;2072210;28;20213;-58
2022/01/01 01:30:39;;;;;;;24.65;12.73;;;;;;;7.24;94.08;97595.50;2072367;28;20202;-58
2022/01/01 01:31:41;;;;;;;22.70;13.27;;;;;;;7.03;93.71;97565.09;2071726;28;20221;-58
2022/01/01 01:32:44;;;;;;;23.55;13.68;;;;;;;7.02;93.54;97563.41;2072387;28;20194;-58
2022/01/01 01:33:46;;;;;;;23.70;12.27;;;;;;;7.12;93.81;97591.63;2072389;28;20203;-58
2022/01/01 01:34:47;;;;;;;30.85;11.32;;;;;;;7.26;93.49;97600.66;2072215;28;20202;-58
2022/01/01 01:35:49;;;;;;;21.95;12.90;;;;;;;7.15;93.31;97595.84;2072136;28;20201;-58
2022/01/01 01:36:51;;;;;;;18.40;11.27;;;;;;;7.05;93.84;97594.53;2071871;28;20233;-58
2022/01/01 01:37:52;;;;;;;16.33;10.13;;;;;;;7.03;94.25;97610.22;2072158;28;20206;-58
2022/01/01 01:38:53;;;;;;;18.42;11.43;;;;;;;7.00;94.64;97612.94;2072180;28;20194;-58
2022/01/01 01:39:56;;;;;;;20.25;11.10;;;;;;;7.01;94.84;97612.03;2072298;28;20206;-58
2022/01/01 01:40:57;;;;;;;24.73;12.55;;;;;;;7.00;94.81;97612.06;2072063;28;20197;-58
2022/01/01 01:41:59;;;;;;;22.02;11.20;;;;;;;7.08;94.94;97604.84;2071674;28;20230;-58
2022/01/01 01:43:07;;;;;;;23.40;13.00;;;;;;;7.15;94.41;97610.66;2071948;28;20282;-58
2022/01/01 01:44:42;;;;;;;22.42;13.10;;;;;;;7.14;94.34;97607.22;2072045;28;20205;-58
2022/01/01 01:45:44;;;;;;;25.00;13.05;;;;;;;7.07;94.32;97603.13;2071962;28;20692;-58
2022/01/01 01:46:46;;;;;;;22.00;12.05;;;;;;;7.08;94.02;97597.03;2071709;28;20240;-58
2022/01/01 01:47:48;;;;;;;22.40;13.00;;;;;;;7.08;94.18;97604.84;2070569;28;20194;-58
2022/01/01 01:48:50;;;;;;;24.08;12.82;;;;;;;7.08;94.34;97603.09;2072256;28;20200;-58
2022/01/01 01:49:51;;;;;;;23.83;14.23;;;;;;;7.11;94.19;97599.50;2071865;28;20210;-58
2022/01/01 01:50:56;;;;;;;22.60;13.10;;;;;;;7.08;94.60;97603.09;2072060;28;20194;-58
2022/01/01 01:51:58;;;;;;;26.67;12.63;;;;;;;7.01;94.62;97595.56;2071527;28;20229;-58
2022/01/01 01:52:59;;;;;;;19.88;11.85;;;;;;;6.96;95.43;97603.56;2072225;28;20202;-58
2022/01/01 01:54:01;;;;;;;20.48;12.05;;;;;;;6.98;95.12;97606.97;2072255;28;20208;-58
2022/01/01 01:55:07;;;;;;;23.40;13.18;;;;;;;7.00;95.22;97596.44;2072128;28;20284;-58
2022/01/01 01:56:09;;;;;;;25.63;13.02;;;;;;;6.92;95.30;97600.22;2071108;28;20212;-58
2022/01/01 01:57:11;;;;;;;22.30;13.00;;;;;;;6.85;95.34;97567.50;2071388;28;20221;-58
2022/01/01 01:58:12;;;;;;;34.47;14.85;;;;;;;6.96;94.92;97598.34;2070626;28;20193;-58
2022/01/01 01:59:15;;;;;;;21.13;13.00;;;;;;;6.95;95.13;97609.66;2072087;28;20220;-58
2022/01/01 02:01:39;;;;;;;25.23;14.35;;;;;;;6.93;94.84;97614.91;2071682;28;20245;-58
2022/01/01 02:02:42;;;;;;;21.63;12.80;;;;;;;6.95;95.00;97611.44;2063990;28;20199;-58
2022/01/01 02:03:43;;;;;;;22.20;14.05;;;;;;;6.88;95.23;97609.06;2064024;28;20194;-58
2022/01/01 02:04:45;;;;;;;21.08;13.70;;;;;;;6.93;94.80;97609.72;2063896;28;20626;-58
2022/01/01 02:05:47;;;;;;;32.58;13.90;;;;;;;6.90;95.14;97609.84;2062898;28;20194;-58
2022/01/01 02:06:49;;;;;;;24.02;15.15;;;;;;;6.83;95.05;97600.56;2063391;28;20234;-58
2022/01/01 02:07:52;;;;;;;26.88;14.65;;;;;;;6.86;94.94;97605.66;2064033;28;20198;-58
2022/01/01 02:08:53;;;;;;;28.38;15.40;;;;;;;7.02;94.36;97613.75;2063951;28;20201;-58
2022/01/01 02:09:55;;;;;;;26.55;14.93;;;;;;;7.02;94.21;97615.50;2062630;28;20611;-58
2022/01/01 02:10:57;;;;;;;23.88;13.38;;;;;;;6.99;94.41;97606.03;2065585;28;20545;-58
2022/01/01 02:12:01;;;;;;;27.23;15.52;;;;;;;6.99;93.90;97607.78;2065032;28;20233;-58
2022/01/01 02:13:14;;;;;;;22.63;14.00;;;;;;;7.04;93.64;97613.69;2065542;28;20210;-58
2022/01/01 02:14:22;;;;;;;25.30;14.00;;;;;;;6.90;94.70;97601.19;2065294;28;20221;-58
2022/01/01 02:15:47;;;;;;;24.02;13.35;;;;;;;6.84;94.94;97604.88;2064038;28;20697;-58
2022/01/01 02:18:00;;;;;;;26.92;15.07;;;;;;;6.98;94.71;97608.69;2065209;28;20206;-58
2022/01/01 02:19:01;;;;;;;25.85;15.35;;;;;;;6.79;94.67;97585.97;2065514;28;20642;-58
2022/01/01 02:20:06;;;;;;;22.55;12.90;;;;;;;6.97;95.03;97604.41;2065533;28;20248;-58
2022/01/01 02:21:07;;;;;;;27.42;13.63;;;;;;;7.05;94.81;97603.19;2065364;28;20206;-58
2022/01/01 02:22:10;;;;;;;24.13;12.00;;;;;;;7.09;94.63;97598.72;2065030;28;20237;-58
2022/01/01 02:23:14;;;;;;;24.63;12.73;;;;;;;6.99;94.46;97580.00;2065406;28;20203;-58
2022/01/01 02:24:16;;;;;;;24.40;14.20;;;;;;;6.98;93.72;97554.88;2065311;28;20818;-58
2022/01/01 02:25:19;;;;;;;20.42;12.98;;;;;;;7.22;93.26;97592.13;2065284;28;20202;-58
2022/01/01 02:26:21;;;;;;;26.67;14.25;;;;;;;6.99;94.37;97579.16;2064099;28;20217;-58
2022/01/01 02:27:22;;;;;;;26.23;14.38;;;;;;;7.15;94.46;97601.06;2063135;28;20710;-58
2022/01/01 02:28:24;;;;;;;28.65;15.55;;;;;;;7.06;94.51;97583.22;2065378;28;20206;-58
2022/01/01 02:29:25;;;;;;;32.42;16.20;;;;;;;7.07;94.78;97609.19;2065225;28;20202;-58
2022/01/01 02:30:28;;;;;;;29.83;14.98;;;;;;;7.07;94.87;97603.13;2065191;28;20205;-58
2022/01/01 02:31:32;;;;;;;27.25;14.95;;;;;;;7.07;95.27;97603.97;2064806;28;20202;-58
2022/01/01 02:32:33;;;;;;;24.23;14.45;;;;;;;7.09;95.41;97602.16;2065320;28;20535;-58
2022/01/01 02:33:37;;;;;;;29.60;14.93;;;;;;;7.17;94.97;97606.22;2064989;28;20195;-58
2022/01/01 02:34:38;;;;;;;31.63;16.13;;;;;;;7.20;94.62;97604.34;2063787;28;20209;-58
2022/01/01 02:35:40;;;;;;;25.77;15.25;;;;;;;7.28;94.06;97604.91;2064820;28;20199;-58
2022/01/01 02:36:43;;;;;;;29.08;15.63;;;;;;;7.31;93.65;97599.56;2064515;28;20222;-58
2022/01/01 02:37:45;;;;;;;27.83;14.30;;;;;;;7.36;93.48;97601.16;2064667;28;20217;-58
2022/01/01 02:38:47;;;;;;;25.35;14.80;;;;;;;7.35;93.12;97602.91;2064908;28;20206;-58
2022/01/01 02:39:50;;;;;;;23.33;13.00;;;;;;;7.14;94.11;97607.22;2063320;28;20203;-58
2022/01/01 02:40:52;;;;;;;23.55;13.73;;;;;;;7.13;94.48;97602.88;2065329;28;20685;-57
2022/01/01 02:41:55;;;;;;;27.88;15.18;;;;;;;7.14;94.50;97604.59;2064531;28;20647;-58
2022/01/01 02:42:56;;;;;;;29.35;14.82;;;;;;;7.17;94.38;97608.84;2064922;28;20205;-58
2022/01/01 02:43:58;;;;;;;23.65;14.00;;;;;;;7.23;94.15;97606.84;2065174;28;20237;-58
2022/01/01 02:45:01;;;;;;;23.90;13.27;;;;;;;7.25;94.08;97605.03;2064981;28;20202;-58
2022/01/01 02:46:03;;;;;;;30.75;15.60;;;;;;;7.28;94.20;97609.28;2064933;28;20286;-58
2022/01/01 02:47:05;;;;;;;29.15;15.13;;;;;;;7.24;94.09;97603.31;2064628;28;20275;-58
2022/01/01 02:48:06;;;;;;;28.67;14.85;;;;;;;7.28;93.64;97602.28;2064938;28;20211;-58
2022/01/01 02:49:08;;;;;;;25.65;15.02;;;;;;;7.06;94.13;97571.03;2065181;28;20205;-58
2022/01/01 02:50:11;;;;;;;24.33;14.05;;;;;;;7.26;93.88;97606.72;2064969;28;20214;-58
2022/01/01 02:51:12;;;;;;;21.33;13.05;;;;;;;7.32;94.32;97605.63;2065123;28;20203;-58
2022/01/01 02:52:14;;;;;;;26.92;13.23;;;;;;;7.30;94.09;97597.03;2064671;28;20218;-58
2022/01/01 02:53:16;;;;;;;27.90;15.52;;;;;;;7.30;94.56;97595.25;2063642;28;20201;-58
2022/01/01 02:54:17;;;;;;;24.42;12.93;;;;;;;7.47;94.01;97596.38;2065133;28;20614;-58
2022/01/01 02:55:19;;;;;;;30.10;15.20;;;;;;;7.29;93.79;97561.44;2065139;28;20198;-58
2022/01/01 02:56:20;;;;;;;27.02;13.25;;;;;;;7.42;93.84;97600.91;2062673;28;20209;-58
2022/01/01 02:57:22;;;;;;;24.08;12.90;;;;;;;7.31;93.72;97598.72;2065303;28;20215;-58
2022/01/01 02:58:24;;;;;;;23.55;12.80;;;;;;;7.20;94.24;97596.53;2065062;28;20194;-58
2022/01/01 02:59:25;;;;;;;19.95;12.43;;;;;;;7.15;95.29;97601.06;2064694;28;20210;-58
2022/01/01 03:00:27;;;;;;;20.73;12.55;;;;;;;7.23;95.27;97595.56;2065089;28;20203;-58
2022/01/01 03:01:29;;;;;;;21.77;13.02;;;;;;;7.21;95.47;97595.63;2064679;28;20202;-58
2022/01/01 03:02:30;;;;;;;27.20;12.48;;;;;;;7.22;95.74;97584.31;2071385;28;20375;-58
2022/01/01 03:03:32;;;;;;;22.75;13.45;;;;;;;7.29;94.95;97585.75;2073086;28;20209;-58
2022/01/01 03:04:34;;;;;;;23.73;12.63;;;;;;;7.48;94.40;97582.41;2073270;28;20633;-58
2022/01/01 03:05:36;;;;;;;25.38;12.60;;;;;;;7.50;94.04;97580.59;2073223;28;20190;-58
2022/01/01 03:06:37;;;;;;;24.65;12.60;;;;;;;7.41;94.70;97586.16;2072601;28;20264;-58
2022/01/01 03:07:39;;;;;;;19.40;11.95;;;;;;;7.36;94.74;97590.72;2072811;28;20233;-58
2022/01/01 03:08:40;;;;;;;19.27;11.32;;;;;;;7.48;94.46;97575.44;2073011;28;20194;-58
2022/01/01 03:09:42;;;;;;;22.80;10.65;;;;;;;7.42;94.48;97577.44;2073038;28;20198;-58
2022/01/01 03:10:45;;;;;;;23.02;11.65;;;;;;;7.42;94.94;97587.88;2072759;28;20256;-58
2022/01/01 03:11:46;;;;;;;19.33;11.70;;;;;;;7.45;94.99;97592.97;2072680;28;20217;-58
2022/01/01 03:12:48;;;;;;;18.48;10.15;;;;;;;7.39;95.11;97594.06;2071236;28;20194;-58
2022/01/01 03:13:49;;;;;;;26.80;11.75;;;;;;;7.20;95.76;97582.69;2073043;28;20269;-58
2022/01/01 03:14:51;;;;;;;23.15;11.90;;;;;;;7.21;96.30;97586.97;2073143;28;20202;-58
2022/01/01 03:15:52;;;;;;;21.98;10.68;;;;;;;7.30;96.18;97594.41;2073149;28;20751;-58
2022/01/01 03:16:55;;;;;;;19.27;11.55;;;;;;;7.41;95.80;97599.19;2066978;28;20338;-58
2022/01/01 03:17:57;;;;;;;23.38;12.20;;;;;;;7.37;95.79;97593.28;2064815;28;20190;-58
2022/01/01 03:18:58;;;;;;;20.85;11.60;;;;;;;7.51;95.69;97587.50;2063752;28;20202;-58
2022/01/01 03:19:59;;;;;;;23.15;12.05;;;;;;;7.59;94.52;97593.25;2065031;28;20209;-58
2022/01/01 03:21:01;;;;;;;20.52;10.63;;;;;;;7.48;94.82;97592.81;2065034;28;20205;-58
2022/01/01 03:22:03;;;;;;;24.77;12.38;;;;;;;7.52;94.75;97595.22;2064341;28;20218;-58
2022/01/01 03:23:05;;;;;;;23.52;13.60;;;;;;;7.54;94.07;97584.75;2064767;28;20229;-58
2022/01/01 03:24:08;;;;;;;23.50;11.43;;;;;;;7.52;94.66;97590.03;2064786;28;20237;-58
2022/01/01 03:25:09;;;;;;;20.35;11.75;;;;;;;7.42;94.93;97582.66;2065032;28;20239;-58
2022/01/01 03:26:11;;;;;;;20.17;11.95;;;;;;;7.41;95.40;97587.03;2064856;28;20204;-58
2022/01/01 03:27:12;;;;;;;18.88;12.90;;;;;;;7.37;95.99;97590.66;2064452;28;20226;-58
2022/01/01 03:28:14;;;;;;;24.48;12.60;;;;;;;7.39;96.11;97587.97;2064922;28;20249;-58
2022/01/01 03:29:15;;;;;;;23.73;13.05;;;;;;;7.40;96.22;97585.31;2064974;28;20202;-58
2022/01/01 03:30:17;;;;;;;19.02;11.52;;;;;;;7.41;96.31;97587.03;2063797;28;20225;-58
2022/01/01 03:31:18;;;;;;;20.50;11.52;;;;;;;7.43;96.10;97589.53;2064604;28;20205;-58
2022/01/01 03:32:20;;;;;;;23.15;11.90;;;;;;;7.41;96.08;97580.94;2064658;28;20199;-58
2022/01/01 03:33:22;;;;;;;27.73;13.18;;;;;;;7.37;95.67;97592.41;2064886;28;20880;-58
2022/01/01 03:34:23;;;;;;;29.83;16.90;;;;;;;7.26;95.37;97593.69;2064724;28;20206;-58
2022/01/01 03:35:25;;;;;;;29.10;15.68;;;;;;;7.12;96.67;97590.78;2064930;28;20195;-58
2022/01/01 03:36:28;;;;;;;27.85;15.50;;;;;;;7.18;97.04;97598.34;2064344;28;20221;-58
2022/01/01 03:37:29;;;;;;;27.77;16.00;;;;;;;7.25;97.09;97594.63;2064744;28;20194;-58
2022/01/01 03:38:31;;;;;;;26.15;15.73;;;;;;;7.28;96.96;97589.25;2064619;28;20269;-58
2022/01/01 03:39:32;;;;;;;23.67;15.35;;;;;;;7.30;97.09;97582.22;2064975;28;20209;-58
2022/01/01 03:40:33;;;;;;;21.20;13.77;;;;;;;7.40;96.59;97585.31;2064844;28;20195;-58
2022/01/01 03:41:35;;;;;;;20.08;10.82;;;;;;;7.43;96.04;97576.50;2062437;28;20223;-58
2022/01/01 03:42:36;;;;;;;16.15;9.95;;;;;;;7.63;94.35;97579.16;2064457;28;20201;-58
2022/01/01 03:43:38;;;;;;;13.85;9.02;;;;;;;7.60;93.92;97576.69;2063214;28;20718;-58
2022/01/01 03:44:39;;;;;;;17.00;10.20;;;;;;;7.64;93.67;97580.00;2064411;28;20205;-58
2022/01/01 03:45:41;;;;;;;17.15;9.63;;;;;;;7.71;93.42;97578.84;2064363;28;20206;-58
2022/01/01 03:46:42;;;;;;;18.83;10.75;;;;;;;7.72;93.17;97578.81;2063717;28;20246;-58
2022/01/01 03:47:44;;;;;;;14.95;9.38;;;;;;;7.79;91.85;97581.16;2064463;28;20642;-58
2022/01/01 03:48:46;;;;;;;19.80;8.30;;;;;;;7.69;91.79;97570.25;2064513;28;20203;-58
2022/01/01 03:49:49;;;;;;;13.93;8.32;;;;;;;7.61;92.89;97580.16;2063171;28;20206;-58
2022/01/01 03:50:50;;;;;;;15.85;8.85;;;;;;;7.67;92.13;97577.28;2064238;28;20237;-58
2022/01/01 03:51:52;;;;;;;16.08;7.72;;;;;;;7.81;91.33;97576.72;2064005;28;20278;-57
2022/01/01 03:52:53;;;;;;;12.40;7.05;;;;;;;7.75;91.58;97576.97;2063757;28;20191;-58
2022/01/01 03:53:55;;;;;;;14.00;6.70;;;;;;;7.71;91.35;97569.25;2064557;28;20218;-58
2022/01/01 03:54:56;;;;;;;13.38;8.05;;;;;;;7.72;91.40;97576.19;2064540;28;20202;-58
2022/01/01 03:55:59;;;;;;;13.30;7.15;;;;;;;7.72;91.19;97577.94;2064455;28;20543;-58
2022/01/01 03:57:00;;;;;;;12.35;7.30;;;;;;;7.78;91.68;97584.66;2062839;28;20371;-58
2022/01/01 03:58:02;;;;;;;16.02;7.25;;;;;;;7.93;90.64;97586.63;2063801;28;20191;-58
2022/01/01 03:59:03;;;;;;;12.35;6.25;;;;;;;7.93;90.35;97589.22;2064446;28;20198;-58
2022/01/01 04:00:07;;;;;;;12.88;7.07;;;;;;;7.82;90.66;97581.00;2064696;28;20222;-58
2022/01/01 04:01:09;;;;;;;12.10;8.07;;;;;;;7.80;90.98;97585.44;2063293;28;20634;-58
2022/01/01 04:02:11;;;;;;;14.32;7.90;;;;;;;7.69;91.89;97586.72;2063976;28;20242;-58
2022/01/01 04:03:16;;;;;;;11.95;7.82;;;;;;;7.63;92.34;97584.38;2064615;28;20218;-58
2022/01/01 04:04:17;;;;;;;13.40;7.10;;;;;;;7.68;92.16;97587.66;2064676;28;20861;-58
2022/01/01 04:05:19;;;;;;;20.20;7.80;;;;;;;7.85;91.84;97588.72;2064645;28;20202;-58
2022/01/01 04:06:20;;;;;;;16.15;8.30;;;;;;;7.82;91.29;97586.22;2064153;28;20202;-58
2022/01/01 04:07:22;;;;;;;13.70;8.25;;;;;;;7.70;91.53;97580.63;2064215;28;20198;-58
2022/01/01 04:08:23;;;;;;;12.90;7.65;;;;;;;7.88;90.64;97578.16;2064684;28;20687;-58
2022/01/01 04:09:25;;;;;;;12.45;6.72;;;;;;;8.12;89.61;97582.31;2063741;28;20202;-58
2022/01/01 04:10:26;;;;;;;19.02;8.43;;;;;;;8.02;89.47;97569.75;2064261;28;20205;-58
2022/01/01 04:11:28;;;;;;;13.50;7.50;;;;;;;8.01;89.57;97583.69;2062174;28;20552;-58
2022/01/01 04:12:29;;;;;;;15.77;8.07;;;;;;;7.85;90.32;97575.66;2064583;28;20547;-58
2022/01/01 04:13:30;;;;;;;10.98;6.75;;;;;;;7.85;91.07;97580.88;2064501;28;20194;-58
2022/01/01 04:14:32;;;;;;;13.00;7.80;;;;;;;7.86;90.76;97578.22;2064520;28;20194;-58
2022/01/01 04:15:35;;;;;;;17.80;9.27;;;;;;;7.65;91.29;97585.16;2064516;28;20194;-58
2022/01/01 04:16:36;;;;;;;11.00;7.38;;;;;;;7.60;92.12;97575.84;2064119;28;20874;-58
2022/01/01 04:17:38;;;;;;;15.27;8.82;;;;;;;7.52;92.35;97581.38;2064528;28;20199;-59
2022/01/01 04:18:40;;;;;;;18.33;9.38;;;;;;;7.47;92.58;97565.09;2064554;28;20190;-58
2022/01/01 04:19:41;;;;;;;20.27;10.00;;;;;;;7.56;92.40;97577.72;2064223;28;20198;-58
2022/01/01 04:20:44;;;;;;;17.77;8.82;;;;;;;7.52;92.61;97573.53;2063761;28;20202;-59
2022/01/01 04:21:46;;;;;;;14.65;8.75;;;;;;;7.56;91.97;97575.09;2063106;28;20308;-58
2022/01/01 04:22:47;;;;;;;12.55;7.95;;;;;;;7.56;92.11;97569.91;2064059;28;20799;-58
2022/01/01 04:23:49;;;;;;;13.75;7.53;;;;;;;7.48;92.29;97569.38;2064494;28;20699;-58
2022/01/01 04:24:50;;;;;;;19.98;7.97;;;;;;;7.33;92.04;97569.09;2063547;28;20205;-58
2022/01/01 04:25:52;;;;;;;13.13;7.45;;;;;;;7.35;92.87;97581.19;2064307;28;20191;-58
2022/01/01 04:26:54;;;;;;;12.30;7.78;;;;;;;7.32;92.81;97579.56;2060984;28;20234;-58
2022/01/01 04:27:55;;;;;;;14.25;7.97;;;;;;;7.30;92.85;97581.38;2064450;28;20194;-58
2022/01/01 04:28:57;;;;;;;15.20;8.50;;;;;;;7.26;92.89;97582.44;2064472;28;20616;-58
2022/01/01 04:29:59;;;;;;;12.05;7.78;;;;;;;7.19;93.35;97581.81;2064408;28;20618;-58
2022/01/01 04:31:00;;;;;;;13.50;7.30;;;;;;;7.13;93.62;97576.84;2064440;28;20826;-58
2022/01/01 04:32:02;;;;;;;12.80;6.65;;;;;;;7.12;93.39;97575.16;2063972;28;20233;-58
2022/01/01 04:33:04;;;;;;;11.60;6.90;;;;;;;7.12;93.38;97580.38;2063906;28;20229;-58
2022/01/01 04:34:05;;;;;;;11.60;6.65;;;;;;;7.14;92.85;97557.72;2064488;28;20205;-58
2022/01/01 04:35:07;;;;;;;16.25;7.07;;;;;;;7.22;92.65;97573.03;2063745;28;20202;-58
2022/01/01 04:36:10;;;;;;;10.82;6.40;;;;;;;7.05;93.21;97578.91;2064390;28;20661;-58
2022/01/01 04:37:13;;;;;;;16.13;8.27;;;;;;;7.07;93.50;97580.53;2063983;28;20229;-58
2022/01/01 04:38:35;;;;;;;11.10;6.30;;;;;;;6.99;93.51;97580.00;2064408;28;20654;-58
2022/01/01 04:39:36;;;;;;;12.18;7.18;;;;;;;6.98;93.78;97582.66;2064233;28;20202;-58
2022/01/01 04:40:37;;;;;;;10.77;6.53;;;;;;;6.99;93.17;97577.38;2064429;28;20693;-58
2022/01/01 04:41:39;;;;;;;10.27;5.90;;;;;;;7.01;93.21;97572.97;2063112;28;20229;-58
2022/01/01 04:42:41;;;;;;;11.90;7.15;;;;;;;7.02;92.84;97573.84;2063629;28;20195;-59
2022/01/01 04:43:43;;;;;;;11.02;5.78;;;;;;;7.13;92.73;97576.84;2064429;28;20202;-58
2022/01/01 04:44:44;;;;;;;7.13;5.10;;;;;;;7.13;92.16;97575.09;2064305;28;20499;-58
2022/01/01 04:45:46;;;;;;;13.85;6.43;;;;;;;7.17;92.44;97572.34;2064352;28;20190;-58
2022/01/01 04:46:47;;;;;;;11.68;5.75;;;;;;;7.11;91.89;97558.69;2060909;28;20222;-58
2022/01/01 04:47:49;;;;;;;9.10;5.75;;;;;;;7.15;91.75;97580.22;2064471;28;20741;-59
2022/01/01 04:48:50;;;;;;;8.88;5.45;;;;;;;7.03;92.71;97578.13;2064198;28;20198;-58
2022/01/01 04:49:52;;;;;;;10.68;6.55;;;;;;;6.99;93.05;97576.53;2064360;28;20634;-58
2022/01/01 04:50:53;;;;;;;11.13;5.93;;;;;;;6.92;93.09;97576.78;2064087;28;20201;-58
2022/01/01 04:51:55;;;;;;;14.88;6.88;;;;;;;6.89;93.33;97571.69;2063815;28;20768;-58
2022/01/01 04:52:56;;;;;;;9.52;6.03;;;;;;;6.98;93.68;97572.22;2064339;28;20549;-58
2022/01/01 04:54:00;;;;;;;8.35;5.13;;;;;;;7.03;92.50;97565.94;2064338;28;20237;-58